Pope Air Force Base Fayetteville US
ICAO: KPOB
IATA: POB
Category: Medium
Scheduled Services: No

Elevation: 217 ft
TransAlt. 18000 ft.

Airport Communications:
FAYETTEVILLE APP/DEP:125.175
COMD POST:134.1
ATIS:132.3
CLNC DEL:27.58
GND:124.55
PMSV METRO:34.46
PTD:37.22
TWR:135.025

KPOB Zoom In..

If Map Doesn't Load, Click Here

Runways:

(A) RW 05 length 7501 ft width 150 ft
---- / hdg 48

(B) RW 23 length 7501 ft width 150 ft
ILS 110.90 / hdg 228

Location; KPOB
Day. 23 / Time. 21.56 Zulu
* Altimeter: 30.05
* Temperature: 27° c. 80.6°f.
* Wind from: 050° Speed 10 kn.
Dewpoint: 22° c.
Visibility: 10 Statute Miles.
Clouds: Clear (automated report).

KPOB 232156Z AUTO 05010KT 10SM CLR 27/22 A3005 RMK AO2 SLP177 T02720219 $


Wind From 050°
Speed 10 kn.

 
 
jpsmedia.com for Web Design worldairports.se 2018   terms of use